sensor_id;sensor_type;location;lat;lon;timestamp;temperature;humidity
18408;DHT22;9330;52.210;21.174;2024-02-26T00:02:08;5.30;1.00
18408;DHT22;9330;52.210;21.174;2024-02-26T00:04:35;5.20;1.00
18408;DHT22;9330;52.210;21.174;2024-02-26T00:07:03;5.20;1.00
18408;DHT22;9330;52.210;21.174;2024-02-26T00:09:29;5.10;1.00
18408;DHT22;9330;52.210;21.174;2024-02-26T00:11:56;5.10;1.00
18408;DHT22;9330;52.210;21.174;2024-02-26T00:14:25;5.00;1.00
18408;DHT22;9330;52.210;21.174;2024-02-26T00:16:51;5.10;1.00
18408;DHT22;9330;52.210;21.174;2024-02-26T00:19:20;5.00;1.00
18408;DHT22;9330;52.210;21.174;2024-02-26T00:21:47;5.00;1.00
18408;DHT22;9330;52.210;21.174;2024-02-26T00:24:14;5.00;1.00
18408;DHT22;9330;52.210;21.174;2024-02-26T00:26:41;5.10;24.90
18408;DHT22;9330;52.210;21.174;2024-02-26T00:29:08;5.00;79.60
18408;DHT22;9330;52.210;21.174;2024-02-26T00:31:36;5.00;99.90
18408;DHT22;9330;52.210;21.174;2024-02-26T00:34:03;5.00;99.90
18408;DHT22;9330;52.210;21.174;2024-02-26T00:36:32;5.10;99.90
18408;DHT22;9330;52.210;21.174;2024-02-26T00:38:59;5.10;99.90
18408;DHT22;9330;52.210;21.174;2024-02-26T00:41:25;5.20;99.90
18408;DHT22;9330;52.210;21.174;2024-02-26T00:43:52;5.20;99.90
18408;DHT22;9330;52.210;21.174;2024-02-26T00:46:19;5.10;99.90
18408;DHT22;9330;52.210;21.174;2024-02-26T00:48:46;5.20;99.90
18408;DHT22;9330;52.210;21.174;2024-02-26T00:51:13;5.10;99.90
18408;DHT22;9330;52.210;21.174;2024-02-26T00:53:42;5.20;99.90
18408;DHT22;9330;52.210;21.174;2024-02-26T00:56:09;5.20;99.90
18408;DHT22;9330;52.210;21.174;2024-02-26T00:58:36;5.10;99.90
18408;DHT22;9330;52.210;21.174;2024-02-26T01:01:03;5.10;99.90
18408;DHT22;9330;52.210;21.174;2024-02-26T01:03:30;5.10;99.90
18408;DHT22;9330;52.210;21.174;2024-02-26T01:05:57;5.00;99.90
18408;DHT22;9330;52.210;21.174;2024-02-26T01:08:23;5.00;99.90
18408;DHT22;9330;52.210;21.174;2024-02-26T01:10:52;4.90;56.90
18408;DHT22;9330;52.210;21.174;2024-02-26T01:13:19;4.90;3.10
18408;DHT22;9330;52.210;21.174;2024-02-26T01:15:46;4.90;1.00
18408;DHT22;9330;52.210;21.174;2024-02-26T01:18:13;4.80;1.00
18408;DHT22;9330;52.210;21.174;2024-02-26T01:20:39;4.80;1.00
18408;DHT22;9330;52.210;21.174;2024-02-26T01:23:06;4.70;1.00
18408;DHT22;9330;52.210;21.174;2024-02-26T01:25:33;4.70;1.00
18408;DHT22;9330;52.210;21.174;2024-02-26T01:28:02;4.70;1.00
18408;DHT22;9330;52.210;21.174;2024-02-26T01:30:29;4.60;1.00
18408;DHT22;9330;52.210;21.174;2024-02-26T01:32:56;4.50;1.00
18408;DHT22;9330;52.210;21.174;2024-02-26T01:35:23;4.40;1.00
18408;DHT22;9330;52.210;21.174;2024-02-26T01:37:50;4.40;1.00
18408;DHT22;9330;52.210;21.174;2024-02-26T01:40:16;4.40;1.00
18408;DHT22;9330;52.210;21.174;2024-02-26T01:42:45;4.30;1.00
18408;DHT22;9330;52.210;21.174;2024-02-26T01:45:15;4.30;1.00
18408;DHT22;9330;52.210;21.174;2024-02-26T01:47:48;4.30;1.00
18408;DHT22;9330;52.210;21.174;2024-02-26T01:50:16;4.20;1.00
18408;DHT22;9330;52.210;21.174;2024-02-26T01:52:43;4.20;1.00
18408;DHT22;9330;52.210;21.174;2024-02-26T01:55:11;4.10;1.00
18408;DHT22;9330;52.210;21.174;2024-02-26T01:57:39;4.10;1.00
18408;DHT22;9330;52.210;21.174;2024-02-26T02:00:07;4.10;1.00
18408;DHT22;9330;52.210;21.174;2024-02-26T02:02:37;4.00;1.00
18408;DHT22;9330;52.210;21.174;2024-02-26T02:05:08;4.00;1.00
18408;DHT22;9330;52.210;21.174;2024-02-26T02:07:36;4.00;1.00
18408;DHT22;9330;52.210;21.174;2024-02-26T02:10:04;3.90;1.00
18408;DHT22;9330;52.210;21.174;2024-02-26T02:12:32;3.90;1.00
18408;DHT22;9330;52.210;21.174;2024-02-26T02:15:00;3.90;1.00
18408;DHT22;9330;52.210;21.174;2024-02-26T02:17:27;3.90;1.00
18408;DHT22;9330;52.210;21.174;2024-02-26T02:19:56;3.80;1.00
18408;DHT22;9330;52.210;21.174;2024-02-26T02:22:24;3.80;1.00
18408;DHT22;9330;52.210;21.174;2024-02-26T02:24:52;3.80;37.30
18408;DHT22;9330;52.210;21.174;2024-02-26T02:27:19;3.70;52.80
18408;DHT22;9330;52.210;21.174;2024-02-26T02:29:47;3.70;63.20
18408;DHT22;9330;52.210;21.174;2024-02-26T02:32:15;3.70;66.40
18408;DHT22;9330;52.210;21.174;2024-02-26T02:34:43;3.70;43.00
18408;DHT22;9330;52.210;21.174;2024-02-26T02:37:10;3.60;28.60
18408;DHT22;9330;52.210;21.174;2024-02-26T02:39:38;3.50;16.50
18408;DHT22;9330;52.210;21.174;2024-02-26T02:42:05;3.60;25.30
18408;DHT22;9330;52.210;21.174;2024-02-26T02:44:32;3.50;21.50
18408;DHT22;9330;52.210;21.174;2024-02-26T02:46:59;3.40;59.70
18408;DHT22;9330;52.210;21.174;2024-02-26T02:49:26;3.50;99.10
18408;DHT22;9330;52.210;21.174;2024-02-26T02:51:52;3.50;99.90
18408;DHT22;9330;52.210;21.174;2024-02-26T02:54:20;3.40;99.90
18408;DHT22;9330;52.210;21.174;2024-02-26T02:56:48;3.40;99.90
18408;DHT22;9330;52.210;21.174;2024-02-26T02:59:15;3.30;99.90
18408;DHT22;9330;52.210;21.174;2024-02-26T03:01:42;3.40;99.90
18408;DHT22;9330;52.210;21.174;2024-02-26T03:04:09;3.40;99.90
18408;DHT22;9330;52.210;21.174;2024-02-26T03:06:36;3.30;99.90
18408;DHT22;9330;52.210;21.174;2024-02-26T03:09:03;3.30;99.90
18408;DHT22;9330;52.210;21.174;2024-02-26T03:11:30;3.30;99.90
18408;DHT22;9330;52.210;21.174;2024-02-26T03:13:58;3.30;99.90
18408;DHT22;9330;52.210;21.174;2024-02-26T03:16:25;3.30;99.90
18408;DHT22;9330;52.210;21.174;2024-02-26T03:18:53;3.30;99.90
18408;DHT22;9330;52.210;21.174;2024-02-26T03:21:21;3.30;99.90
18408;DHT22;9330;52.210;21.174;2024-02-26T03:23:48;3.30;99.90
18408;DHT22;9330;52.210;21.174;2024-02-26T03:26:15;3.30;99.90
18408;DHT22;9330;52.210;21.174;2024-02-26T03:28:42;3.30;99.90
18408;DHT22;9330;52.210;21.174;2024-02-26T03:31:10;3.40;99.90
18408;DHT22;9330;52.210;21.174;2024-02-26T03:33:37;3.30;99.90
18408;DHT22;9330;52.210;21.174;2024-02-26T03:36:05;3.30;99.90
18408;DHT22;9330;52.210;21.174;2024-02-26T03:38:33;3.30;99.90
18408;DHT22;9330;52.210;21.174;2024-02-26T03:41:00;3.30;99.90
18408;DHT22;9330;52.210;21.174;2024-02-26T03:43:27;3.30;99.90
18408;DHT22;9330;52.210;21.174;2024-02-26T03:45:54;3.30;99.90
18408;DHT22;9330;52.210;21.174;2024-02-26T03:48:22;3.30;99.90
18408;DHT22;9330;52.210;21.174;2024-02-26T03:50:49;3.60;99.90
18408;DHT22;9330;52.210;21.174;2024-02-26T03:53:16;3.40;99.90
18408;DHT22;9330;52.210;21.174;2024-02-26T03:55:43;3.60;99.90
18408;DHT22;9330;52.210;21.174;2024-02-26T03:58:12;3.50;99.90
18408;DHT22;9330;52.210;21.174;2024-02-26T04:00:39;3.40;99.90
18408;DHT22;9330;52.210;21.174;2024-02-26T04:03:06;3.40;99.90
18408;DHT22;9330;52.210;21.174;2024-02-26T04:05:34;3.40;99.90
18408;DHT22;9330;52.210;21.174;2024-02-26T04:08:01;3.50;99.90
18408;DHT22;9330;52.210;21.174;2024-02-26T04:10:29;3.40;99.90
18408;DHT22;9330;52.210;21.174;2024-02-26T04:12:56;3.40;99.90
18408;DHT22;9330;52.210;21.174;2024-02-26T04:15:23;3.40;99.90
18408;DHT22;9330;52.210;21.174;2024-02-26T04:17:50;3.40;99.90
18408;DHT22;9330;52.210;21.174;2024-02-26T04:20:17;3.40;99.90
18408;DHT22;9330;52.210;21.174;2024-02-26T04:22:45;3.30;99.90
18408;DHT22;9330;52.210;21.174;2024-02-26T04:25:12;3.30;99.90
18408;DHT22;9330;52.210;21.174;2024-02-26T04:27:39;3.30;99.90
18408;DHT22;9330;52.210;21.174;2024-02-26T04:30:07;3.30;99.90
18408;DHT22;9330;52.210;21.174;2024-02-26T04:32:34;3.20;99.90
18408;DHT22;9330;52.210;21.174;2024-02-26T04:35:02;3.20;99.90
18408;DHT22;9330;52.210;21.174;2024-02-26T04:37:29;3.20;99.90
18408;DHT22;9330;52.210;21.174;2024-02-26T04:39:59;3.20;99.90
18408;DHT22;9330;52.210;21.174;2024-02-26T04:42:27;3.30;99.90
18408;DHT22;9330;52.210;21.174;2024-02-26T04:44:54;3.20;99.90
18408;DHT22;9330;52.210;21.174;2024-02-26T04:47:21;3.10;99.90
18408;DHT22;9330;52.210;21.174;2024-02-26T04:49:49;3.30;99.90
18408;DHT22;9330;52.210;21.174;2024-02-26T04:52:16;3.30;99.90
18408;DHT22;9330;52.210;21.174;2024-02-26T04:54:43;3.30;99.90
18408;DHT22;9330;52.210;21.174;2024-02-26T04:57:11;3.30;99.90
18408;DHT22;9330;52.210;21.174;2024-02-26T04:59:38;3.50;99.90
18408;DHT22;9330;52.210;21.174;2024-02-26T05:02:06;3.30;99.90
18408;DHT22;9330;52.210;21.174;2024-02-26T05:04:33;3.30;99.90
18408;DHT22;9330;52.210;21.174;2024-02-26T05:07:00;3.50;99.90
18408;DHT22;9330;52.210;21.174;2024-02-26T05:09:27;3.40;99.90
18408;DHT22;9330;52.210;21.174;2024-02-26T05:11:54;3.50;99.90
18408;DHT22;9330;52.210;21.174;2024-02-26T05:14:22;3.60;99.90
18408;DHT22;9330;52.210;21.174;2024-02-26T05:16:49;3.60;99.90
18408;DHT22;9330;52.210;21.174;2024-02-26T05:19:16;3.70;99.90
18408;DHT22;9330;52.210;21.174;2024-02-26T05:21:42;3.70;99.90
18408;DHT22;9330;52.210;21.174;2024-02-26T05:24:10;3.70;99.90
18408;DHT22;9330;52.210;21.174;2024-02-26T05:26:37;3.80;99.90
18408;DHT22;9330;52.210;21.174;2024-02-26T05:29:04;3.70;99.90
18408;DHT22;9330;52.210;21.174;2024-02-26T05:31:32;3.70;99.90
18408;DHT22;9330;52.210;21.174;2024-02-26T05:33:59;3.70;99.90
18408;DHT22;9330;52.210;21.174;2024-02-26T05:36:26;3.70;99.90
18408;DHT22;9330;52.210;21.174;2024-02-26T05:38:54;3.70;99.90
18408;DHT22;9330;52.210;21.174;2024-02-26T05:41:21;3.70;99.90
18408;DHT22;9330;52.210;21.174;2024-02-26T05:43:51;3.80;99.90
18408;DHT22;9330;52.210;21.174;2024-02-26T05:46:18;3.80;99.90
18408;DHT22;9330;52.210;21.174;2024-02-26T05:48:47;3.80;99.90
18408;DHT22;9330;52.210;21.174;2024-02-26T05:51:14;3.80;99.90
18408;DHT22;9330;52.210;21.174;2024-02-26T05:53:42;3.80;99.90
18408;DHT22;9330;52.210;21.174;2024-02-26T05:56:08;3.80;99.90
18408;DHT22;9330;52.210;21.174;2024-02-26T05:58:35;3.80;99.90
18408;DHT22;9330;52.210;21.174;2024-02-26T06:01:03;3.80;99.90
18408;DHT22;9330;52.210;21.174;2024-02-26T06:03:29;3.90;99.90
18408;DHT22;9330;52.210;21.174;2024-02-26T06:05:58;3.90;99.90
18408;DHT22;9330;52.210;21.174;2024-02-26T06:08:25;3.90;99.90
18408;DHT22;9330;52.210;21.174;2024-02-26T06:10:51;3.90;99.90
18408;DHT22;9330;52.210;21.174;2024-02-26T06:13:18;4.10;99.90
18408;DHT22;9330;52.210;21.174;2024-02-26T06:15:46;4.00;99.90
18408;DHT22;9330;52.210;21.174;2024-02-26T06:18:13;4.00;99.90
18408;DHT22;9330;52.210;21.174;2024-02-26T06:20:40;4.10;99.90
18408;DHT22;9330;52.210;21.174;2024-02-26T06:23:08;4.20;99.90
18408;DHT22;9330;52.210;21.174;2024-02-26T06:25:35;4.20;99.90
18408;DHT22;9330;52.210;21.174;2024-02-26T06:28:02;4.20;99.90
18408;DHT22;9330;52.210;21.174;2024-02-26T06:30:30;4.40;99.90
18408;DHT22;9330;52.210;21.174;2024-02-26T06:32:57;4.40;99.90
18408;DHT22;9330;52.210;21.174;2024-02-26T06:35:24;4.40;99.90
18408;DHT22;9330;52.210;21.174;2024-02-26T06:37:50;4.50;99.90
18408;DHT22;9330;52.210;21.174;2024-02-26T06:40:20;4.70;99.90
18408;DHT22;9330;52.210;21.174;2024-02-26T06:42:47;4.60;99.90
18408;DHT22;9330;52.210;21.174;2024-02-26T06:45:15;4.70;99.90
18408;DHT22;9330;52.210;21.174;2024-02-26T06:47:42;4.80;99.90
18408;DHT22;9330;52.210;21.174;2024-02-26T06:50:12;4.80;99.90
18408;DHT22;9330;52.210;21.174;2024-02-26T06:52:39;4.90;99.90
18408;DHT22;9330;52.210;21.174;2024-02-26T06:55:06;5.10;99.90
18408;DHT22;9330;52.210;21.174;2024-02-26T06:57:35;5.20;99.90
18408;DHT22;9330;52.210;21.174;2024-02-26T07:00:02;5.30;99.90
18408;DHT22;9330;52.210;21.174;2024-02-26T07:02:30;5.50;99.90
18408;DHT22;9330;52.210;21.174;2024-02-26T07:04:57;5.70;99.90
18408;DHT22;9330;52.210;21.174;2024-02-26T07:07:24;6.00;99.90
18408;DHT22;9330;52.210;21.174;2024-02-26T07:09:51;6.20;99.90
18408;DHT22;9330;52.210;21.174;2024-02-26T07:12:18;6.40;99.90
18408;DHT22;9330;52.210;21.174;2024-02-26T07:14:48;6.50;99.90
18408;DHT22;9330;52.210;21.174;2024-02-26T07:17:16;6.70;99.90
18408;DHT22;9330;52.210;21.174;2024-02-26T07:19:43;6.90;99.90
18408;DHT22;9330;52.210;21.174;2024-02-26T07:22:10;7.10;99.90
18408;DHT22;9330;52.210;21.174;2024-02-26T07:24:37;7.40;99.90
18408;DHT22;9330;52.210;21.174;2024-02-26T07:27:04;7.60;99.90
18408;DHT22;9330;52.210;21.174;2024-02-26T07:29:31;7.90;99.90
18408;DHT22;9330;52.210;21.174;2024-02-26T07:31:59;8.10;99.90
18408;DHT22;9330;52.210;21.174;2024-02-26T07:34:26;8.20;99.90
18408;DHT22;9330;52.210;21.174;2024-02-26T07:36:54;8.40;99.90
18408;DHT22;9330;52.210;21.174;2024-02-26T07:39:21;8.50;99.90
18408;DHT22;9330;52.210;21.174;2024-02-26T07:41:48;8.70;99.90
18408;DHT22;9330;52.210;21.174;2024-02-26T07:44:17;8.80;99.90
18408;DHT22;9330;52.210;21.174;2024-02-26T07:46:44;9.00;99.90
18408;DHT22;9330;52.210;21.174;2024-02-26T07:49:13;9.20;99.90
18408;DHT22;9330;52.210;21.174;2024-02-26T07:51:40;9.20;99.90
18408;DHT22;9330;52.210;21.174;2024-02-26T07:54:07;9.30;99.90
18408;DHT22;9330;52.210;21.174;2024-02-26T07:56:33;9.40;99.90
18408;DHT22;9330;52.210;21.174;2024-02-26T07:59:00;9.50;99.90
18408;DHT22;9330;52.210;21.174;2024-02-26T08:01:27;9.70;99.90
18408;DHT22;9330;52.210;21.174;2024-02-26T08:03:54;9.80;99.90
18408;DHT22;9330;52.210;21.174;2024-02-26T08:06:23;9.80;99.90
18408;DHT22;9330;52.210;21.174;2024-02-26T08:08:51;10.00;99.90
18408;DHT22;9330;52.210;21.174;2024-02-26T08:11:18;10.20;99.90
18408;DHT22;9330;52.210;21.174;2024-02-26T08:13:45;10.50;99.90
18408;DHT22;9330;52.210;21.174;2024-02-26T08:16:11;10.70;99.90
18408;DHT22;9330;52.210;21.174;2024-02-26T08:18:38;10.90;99.90
18408;DHT22;9330;52.210;21.174;2024-02-26T08:21:05;11.10;1.00
18408;DHT22;9330;52.210;21.174;2024-02-26T08:23:35;11.30;1.00
18408;DHT22;9330;52.210;21.174;2024-02-26T08:26:02;11.10;99.90
18408;DHT22;9330;52.210;21.174;2024-02-26T08:28:32;11.30;1.00
18408;DHT22;9330;52.210;21.174;2024-02-26T08:30:59;11.20;75.00
18408;DHT22;9330;52.210;21.174;2024-02-26T08:33:26;11.20;1.00
18408;DHT22;9330;52.210;21.174;2024-02-26T08:35:53;11.20;1.00
18408;DHT22;9330;52.210;21.174;2024-02-26T08:38:20;11.30;1.00
18408;DHT22;9330;52.210;21.174;2024-02-26T08:40:48;11.20;1.00
18408;DHT22;9330;52.210;21.174;2024-02-26T08:43:15;11.20;3.80
18408;DHT22;9330;52.210;21.174;2024-02-26T08:45:43;11.20;1.00
18408;DHT22;9330;52.210;21.174;2024-02-26T08:48:10;11.20;1.00
18408;DHT22;9330;52.210;21.174;2024-02-26T08:50:37;11.30;1.00
18408;DHT22;9330;52.210;21.174;2024-02-26T08:53:04;11.20;1.00
18408;DHT22;9330;52.210;21.174;2024-02-26T08:55:31;11.30;1.00
18408;DHT22;9330;52.210;21.174;2024-02-26T08:57:59;11.30;99.90
18408;DHT22;9330;52.210;21.174;2024-02-26T09:00:26;11.00;1.00
18408;DHT22;9330;52.210;21.174;2024-02-26T09:02:53;10.80;99.90
18408;DHT22;9330;52.210;21.174;2024-02-26T09:05:20;10.60;1.00
18408;DHT22;9330;52.210;21.174;2024-02-26T09:07:47;10.50;1.00
18408;DHT22;9330;52.210;21.174;2024-02-26T09:10:14;10.50;1.00
18408;DHT22;9330;52.210;21.174;2024-02-26T09:12:41;10.50;1.00
18408;DHT22;9330;52.210;21.174;2024-02-26T09:15:09;10.50;1.00
18408;DHT22;9330;52.210;21.174;2024-02-26T09:17:37;10.50;74.90
18408;DHT22;9330;52.210;21.174;2024-02-26T09:20:05;10.40;99.90
18408;DHT22;9330;52.210;21.174;2024-02-26T09:22:34;10.40;99.90
18408;DHT22;9330;52.210;21.174;2024-02-26T09:25:04;10.40;1.00
18408;DHT22;9330;52.210;21.174;2024-02-26T09:27:31;10.30;99.90
18408;DHT22;9330;52.210;21.174;2024-02-26T09:29:58;10.40;99.90
18408;DHT22;9330;52.210;21.174;2024-02-26T09:32:26;10.20;5.00
18408;DHT22;9330;52.210;21.174;2024-02-26T09:34:53;10.30;41.00
18408;DHT22;9330;52.210;21.174;2024-02-26T09:37:20;10.20;1.00
18408;DHT22;9330;52.210;21.174;2024-02-26T09:39:47;10.30;1.00
18408;DHT22;9330;52.210;21.174;2024-02-26T09:42:14;10.20;15.40
18408;DHT22;9330;52.210;21.174;2024-02-26T09:44:44;10.20;1.00
18408;DHT22;9330;52.210;21.174;2024-02-26T09:47:12;10.20;1.00
18408;DHT22;9330;52.210;21.174;2024-02-26T09:49:42;10.20;1.00
18408;DHT22;9330;52.210;21.174;2024-02-26T09:52:09;10.20;1.00
18408;DHT22;9330;52.210;21.174;2024-02-26T09:54:36;10.20;1.00
18408;DHT22;9330;52.210;21.174;2024-02-26T09:57:03;10.10;1.00
18408;DHT22;9330;52.210;21.174;2024-02-26T09:59:38;10.10;1.00
18408;DHT22;9330;52.210;21.174;2024-02-26T10:02:08;10.10;1.00
18408;DHT22;9330;52.210;21.174;2024-02-26T10:04:36;10.10;1.00
18408;DHT22;9330;52.210;21.174;2024-02-26T10:07:06;10.10;1.00
18408;DHT22;9330;52.210;21.174;2024-02-26T10:09:36;10.10;1.00
18408;DHT22;9330;52.210;21.174;2024-02-26T10:12:04;10.10;1.00
18408;DHT22;9330;52.210;21.174;2024-02-26T10:14:31;10.10;1.00
18408;DHT22;9330;52.210;21.174;2024-02-26T10:16:57;10.10;1.00
18408;DHT22;9330;52.210;21.174;2024-02-26T10:19:27;10.10;1.00
18408;DHT22;9330;52.210;21.174;2024-02-26T10:21:56;10.10;1.00
18408;DHT22;9330;52.210;21.174;2024-02-26T10:24:26;10.10;1.00
18408;DHT22;9330;52.210;21.174;2024-02-26T10:26:53;10.10;1.00
18408;DHT22;9330;52.210;21.174;2024-02-26T10:29:21;10.20;1.00
18408;DHT22;9330;52.210;21.174;2024-02-26T10:31:50;10.20;99.90
18408;DHT22;9330;52.210;21.174;2024-02-26T10:34:17;10.30;99.90
18408;DHT22;9330;52.210;21.174;2024-02-26T10:36:44;10.30;24.20
18408;DHT22;9330;52.210;21.174;2024-02-26T10:39:12;10.40;1.00
18408;DHT22;9330;52.210;21.174;2024-02-26T10:41:42;10.50;1.00
18408;DHT22;9330;52.210;21.174;2024-02-26T10:44:09;10.50;1.00
18408;DHT22;9330;52.210;21.174;2024-02-26T10:46:37;10.60;1.00
18408;DHT22;9330;52.210;21.174;2024-02-26T10:49:04;10.60;1.00
18408;DHT22;9330;52.210;21.174;2024-02-26T10:51:37;10.60;99.90
18408;DHT22;9330;52.210;21.174;2024-02-26T10:54:06;10.70;29.70
18408;DHT22;9330;52.210;21.174;2024-02-26T10:56:36;10.80;1.00
18408;DHT22;9330;52.210;21.174;2024-02-26T10:59:07;10.90;55.70
18408;DHT22;9330;52.210;21.174;2024-02-26T11:01:36;11.00;1.00
18408;DHT22;9330;52.210;21.174;2024-02-26T11:04:04;11.20;1.00
18408;DHT22;9330;52.210;21.174;2024-02-26T11:06:31;11.30;99.90
18408;DHT22;9330;52.210;21.174;2024-02-26T11:09:01;11.40;99.90
18408;DHT22;9330;52.210;21.174;2024-02-26T11:11:29;11.40;1.00
18408;DHT22;9330;52.210;21.174;2024-02-26T11:13:57;11.50;59.70
18408;DHT22;9330;52.210;21.174;2024-02-26T11:16:27;11.60;1.00
18408;DHT22;9330;52.210;21.174;2024-02-26T11:18:55;11.70;99.90
18408;DHT22;9330;52.210;21.174;2024-02-26T11:21:24;11.70;1.00
18408;DHT22;9330;52.210;21.174;2024-02-26T11:23:56;11.90;99.90
18408;DHT22;9330;52.210;21.174;2024-02-26T11:26:23;11.90;1.00
18408;DHT22;9330;52.210;21.174;2024-02-26T11:28:52;12.00;1.00
18408;DHT22;9330;52.210;21.174;2024-02-26T11:31:20;12.00;1.00
18408;DHT22;9330;52.210;21.174;2024-02-26T11:33:55;12.20;99.90
18408;DHT22;9330;52.210;21.174;2024-02-26T11:36:24;12.30;99.90
18408;DHT22;9330;52.210;21.174;2024-02-26T11:38:51;12.40;99.90
18408;DHT22;9330;52.210;21.174;2024-02-26T11:41:18;12.40;1.00
18408;DHT22;9330;52.210;21.174;2024-02-26T11:43:58;12.50;1.00
18408;DHT22;9330;52.210;21.174;2024-02-26T11:46:27;12.60;99.90
18408;DHT22;9330;52.210;21.174;2024-02-26T11:48:58;12.70;99.90
18408;DHT22;9330;52.210;21.174;2024-02-26T11:51:26;12.80;99.90
18408;DHT22;9330;52.210;21.174;2024-02-26T11:53:54;12.80;1.00
18408;DHT22;9330;52.210;21.174;2024-02-26T11:56:23;12.90;1.00
18408;DHT22;9330;52.210;21.174;2024-02-26T11:59:03;13.00;1.00
18408;DHT22;9330;52.210;21.174;2024-02-26T12:01:43;13.20;1.00
18408;DHT22;9330;52.210;21.174;2024-02-26T12:04:18;13.10;1.00
18408;DHT22;9330;52.210;21.174;2024-02-26T12:06:47;13.30;99.90
18408;DHT22;9330;52.210;21.174;2024-02-26T12:09:33;13.30;99.90
18408;DHT22;9330;52.210;21.174;2024-02-26T12:12:01;13.40;99.90
18408;DHT22;9330;52.210;21.174;2024-02-26T12:14:28;13.60;1.00
18408;DHT22;9330;52.210;21.174;2024-02-26T12:16:55;13.70;1.00
18408;DHT22;9330;52.210;21.174;2024-02-26T12:19:25;13.70;1.00
18408;DHT22;9330;52.210;21.174;2024-02-26T12:21:54;13.60;1.00
18408;DHT22;9330;52.210;21.174;2024-02-26T12:24:21;13.50;1.00
18408;DHT22;9330;52.210;21.174;2024-02-26T12:26:48;13.50;1.00
18408;DHT22;9330;52.210;21.174;2024-02-26T12:29:15;13.50;1.00
18408;DHT22;9330;52.210;21.174;2024-02-26T12:31:42;13.50;1.00
18408;DHT22;9330;52.210;21.174;2024-02-26T12:34:09;13.60;1.00
18408;DHT22;9330;52.210;21.174;2024-02-26T12:36:38;13.60;1.00
18408;DHT22;9330;52.210;21.174;2024-02-26T12:39:06;13.60;1.00
18408;DHT22;9330;52.210;21.174;2024-02-26T12:41:34;13.50;1.00
18408;DHT22;9330;52.210;21.174;2024-02-26T12:44:01;13.30;1.00
18408;DHT22;9330;52.210;21.174;2024-02-26T12:46:28;13.40;1.00
18408;DHT22;9330;52.210;21.174;2024-02-26T12:48:56;13.40;1.00
18408;DHT22;9330;52.210;21.174;2024-02-26T12:51:25;13.40;1.00
18408;DHT22;9330;52.210;21.174;2024-02-26T12:53:54;13.40;1.00
18408;DHT22;9330;52.210;21.174;2024-02-26T12:56:22;13.30;1.00
18408;DHT22;9330;52.210;21.174;2024-02-26T12:58:50;13.30;1.00
18408;DHT22;9330;52.210;21.174;2024-02-26T13:01:19;13.30;1.00
18408;DHT22;9330;52.210;21.174;2024-02-26T13:03:48;13.30;1.00
18408;DHT22;9330;52.210;21.174;2024-02-26T13:06:16;13.30;1.00
18408;DHT22;9330;52.210;21.174;2024-02-26T13:08:44;13.20;1.00
18408;DHT22;9330;52.210;21.174;2024-02-26T13:11:14;13.20;1.00
18408;DHT22;9330;52.210;21.174;2024-02-26T13:13:41;13.20;1.00
18408;DHT22;9330;52.210;21.174;2024-02-26T13:16:14;13.20;1.00
18408;DHT22;9330;52.210;21.174;2024-02-26T13:18:41;13.20;1.00
18408;DHT22;9330;52.210;21.174;2024-02-26T13:21:10;13.20;1.00
18408;DHT22;9330;52.210;21.174;2024-02-26T13:23:37;13.20;1.00
18408;DHT22;9330;52.210;21.174;2024-02-26T13:26:05;13.20;1.00
18408;DHT22;9330;52.210;21.174;2024-02-26T13:28:34;13.30;1.00
18408;DHT22;9330;52.210;21.174;2024-02-26T13:31:01;13.30;1.00
18408;DHT22;9330;52.210;21.174;2024-02-26T13:33:30;13.30;1.00
18408;DHT22;9330;52.210;21.174;2024-02-26T13:35:58;13.30;1.00
18408;DHT22;9330;52.210;21.174;2024-02-26T13:38:25;13.30;1.00
18408;DHT22;9330;52.210;21.174;2024-02-26T13:40:52;13.30;1.00
18408;DHT22;9330;52.210;21.174;2024-02-26T13:43:20;13.40;1.00
18408;DHT22;9330;52.210;21.174;2024-02-26T13:45:48;13.50;1.00
18408;DHT22;9330;52.210;21.174;2024-02-26T13:48:15;13.50;1.00
18408;DHT22;9330;52.210;21.174;2024-02-26T13:50:42;13.40;1.00
18408;DHT22;9330;52.210;21.174;2024-02-26T13:53:10;13.40;1.00
18408;DHT22;9330;52.210;21.174;2024-02-26T13:55:38;13.50;1.00
18408;DHT22;9330;52.210;21.174;2024-02-26T13:58:05;13.50;1.00
18408;DHT22;9330;52.210;21.174;2024-02-26T14:00:32;13.50;99.90
18408;DHT22;9330;52.210;21.174;2024-02-26T14:03:02;13.50;99.90
18408;DHT22;9330;52.210;21.174;2024-02-26T14:05:29;13.40;99.90
18408;DHT22;9330;52.210;21.174;2024-02-26T14:07:56;13.40;99.90
18408;DHT22;9330;52.210;21.174;2024-02-26T14:10:23;13.50;99.90
18408;DHT22;9330;52.210;21.174;2024-02-26T14:12:50;13.40;99.90
18408;DHT22;9330;52.210;21.174;2024-02-26T14:15:16;13.40;99.90
18408;DHT22;9330;52.210;21.174;2024-02-26T14:17:43;13.40;99.90
18408;DHT22;9330;52.210;21.174;2024-02-26T14:20:13;13.40;99.90
18408;DHT22;9330;52.210;21.174;2024-02-26T14:22:39;13.30;99.90
18408;DHT22;9330;52.210;21.174;2024-02-26T14:25:07;13.40;99.90
18408;DHT22;9330;52.210;21.174;2024-02-26T14:27:35;13.30;99.90
18408;DHT22;9330;52.210;21.174;2024-02-26T14:30:02;13.30;99.90
18408;DHT22;9330;52.210;21.174;2024-02-26T14:32:30;13.30;1.00
18408;DHT22;9330;52.210;21.174;2024-02-26T14:35:00;13.30;1.00
18408;DHT22;9330;52.210;21.174;2024-02-26T14:37:29;13.20;1.00
18408;DHT22;9330;52.210;21.174;2024-02-26T14:39:56;13.20;1.00
18408;DHT22;9330;52.210;21.174;2024-02-26T14:42:23;13.20;1.00
18408;DHT22;9330;52.210;21.174;2024-02-26T14:44:50;13.20;1.00
18408;DHT22;9330;52.210;21.174;2024-02-26T14:47:17;13.30;1.00
18408;DHT22;9330;52.210;21.174;2024-02-26T14:49:44;13.20;1.00
18408;DHT22;9330;52.210;21.174;2024-02-26T14:52:13;13.30;1.00
18408;DHT22;9330;52.210;21.174;2024-02-26T14:54:41;13.20;1.00
18408;DHT22;9330;52.210;21.174;2024-02-26T14:57:08;13.10;1.00
18408;DHT22;9330;52.210;21.174;2024-02-26T14:59:35;13.20;1.00
18408;DHT22;9330;52.210;21.174;2024-02-26T15:02:03;13.20;1.00
18408;DHT22;9330;52.210;21.174;2024-02-26T15:04:30;13.20;1.00
18408;DHT22;9330;52.210;21.174;2024-02-26T15:06:57;13.20;1.00
18408;DHT22;9330;52.210;21.174;2024-02-26T15:09:24;13.20;1.00
18408;DHT22;9330;52.210;21.174;2024-02-26T15:11:52;13.10;1.00
18408;DHT22;9330;52.210;21.174;2024-02-26T15:14:19;13.10;1.00
18408;DHT22;9330;52.210;21.174;2024-02-26T15:16:46;13.10;1.00
18408;DHT22;9330;52.210;21.174;2024-02-26T15:19:13;13.00;1.00
18408;DHT22;9330;52.210;21.174;2024-02-26T15:21:43;13.00;1.00
18408;DHT22;9330;52.210;21.174;2024-02-26T15:24:10;12.90;1.00
18408;DHT22;9330;52.210;21.174;2024-02-26T15:26:38;12.80;11.90
18408;DHT22;9330;52.210;21.174;2024-02-26T15:29:09;12.80;72.60
18408;DHT22;9330;52.210;21.174;2024-02-26T15:31:36;12.70;99.90
18408;DHT22;9330;52.210;21.174;2024-02-26T15:34:03;12.70;99.90
18408;DHT22;9330;52.210;21.174;2024-02-26T15:36:30;12.70;1.00
18408;DHT22;9330;52.210;21.174;2024-02-26T15:38:57;12.70;1.00
18408;DHT22;9330;52.210;21.174;2024-02-26T15:41:24;12.60;1.00
18408;DHT22;9330;52.210;21.174;2024-02-26T15:43:51;12.60;1.00
18408;DHT22;9330;52.210;21.174;2024-02-26T15:46:20;12.50;1.00
18408;DHT22;9330;52.210;21.174;2024-02-26T15:48:46;12.50;1.00